sensor_id;sensor_type;location;lat;lon;timestamp;P1;durP1;ratioP1;P2;durP2;ratioP2
22565;SDS011;11449;51.330;19.378;2023-12-22T00:01:10;204.30;;;106.80;;
22565;SDS011;11449;51.330;19.378;2023-12-22T00:06:19;269.80;;;160.80;;
22565;SDS011;11449;51.330;19.378;2023-12-22T00:11:26;246.70;;;159.60;;
22565;SDS011;11449;51.330;19.378;2023-12-22T00:16:36;230.90;;;157.30;;
22565;SDS011;11449;51.330;19.378;2023-12-22T00:21:44;222.30;;;139.00;;
22565;SDS011;11449;51.330;19.378;2023-12-22T00:26:51;274.70;;;161.00;;
22565;SDS011;11449;51.330;19.378;2023-12-22T00:31:59;167.00;;;77.30;;
22565;SDS011;11449;51.330;19.378;2023-12-22T00:37:07;214.40;;;99.10;;
22565;SDS011;11449;51.330;19.378;2023-12-22T00:42:14;260.80;;;117.00;;
22565;SDS011;11449;51.330;19.378;2023-12-22T00:47:22;329.30;;;184.90;;
22565;SDS011;11449;51.330;19.378;2023-12-22T00:52:31;177.10;;;80.10;;
22565;SDS011;11449;51.330;19.378;2023-12-22T00:57:38;195.20;;;89.80;;
22565;SDS011;11449;51.330;19.378;2023-12-22T01:02:46;295.50;;;222.00;;
22565;SDS011;11449;51.330;19.378;2023-12-22T01:07:54;293.30;;;199.10;;
22565;SDS011;11449;51.330;19.378;2023-12-22T01:13:02;287.30;;;208.80;;
22565;SDS011;11449;51.330;19.378;2023-12-22T01:18:10;275.30;;;216.40;;
22565;SDS011;11449;51.330;19.378;2023-12-22T01:23:40;278.90;;;168.80;;
22565;SDS011;11449;51.330;19.378;2023-12-22T01:28:48;248.60;;;152.80;;
22565;SDS011;11449;51.330;19.378;2023-12-22T01:33:55;232.20;;;131.00;;
22565;SDS011;11449;51.330;19.378;2023-12-22T01:39:03;211.10;;;118.80;;
22565;SDS011;11449;51.330;19.378;2023-12-22T01:44:11;219.70;;;121.30;;
22565;SDS011;11449;51.330;19.378;2023-12-22T01:49:20;211.50;;;114.00;;
22565;SDS011;11449;51.330;19.378;2023-12-22T01:54:28;255.00;;;150.90;;
22565;SDS011;11449;51.330;19.378;2023-12-22T01:59:37;359.30;;;227.50;;
22565;SDS011;11449;51.330;19.378;2023-12-22T02:04:44;320.00;;;204.60;;
22565;SDS011;11449;51.330;19.378;2023-12-22T02:09:53;271.30;;;167.50;;
22565;SDS011;11449;51.330;19.378;2023-12-22T02:15:01;292.50;;;195.90;;
22565;SDS011;11449;51.330;19.378;2023-12-22T02:20:09;337.50;;;227.60;;
22565;SDS011;11449;51.330;19.378;2023-12-22T02:25:17;290.20;;;193.80;;
22565;SDS011;11449;51.330;19.378;2023-12-22T02:35:38;738.30;;;676.00;;
22565;SDS011;11449;51.330;19.378;2023-12-22T02:40:49;800.90;;;738.50;;
22565;SDS011;11449;51.330;19.378;2023-12-22T02:45:56;834.70;;;769.60;;
22565;SDS011;11449;51.330;19.378;2023-12-22T02:51:04;883.00;;;813.40;;
22565;SDS011;11449;51.330;19.378;2023-12-22T02:56:12;876.90;;;812.20;;
22565;SDS011;11449;51.330;19.378;2023-12-22T03:01:19;254.40;;;162.40;;
22565;SDS011;11449;51.330;19.378;2023-12-22T03:06:27;294.50;;;202.70;;
22565;SDS011;11449;51.330;19.378;2023-12-22T03:11:35;352.10;;;248.80;;
22565;SDS011;11449;51.330;19.378;2023-12-22T03:16:42;304.70;;;190.10;;
22565;SDS011;11449;51.330;19.378;2023-12-22T03:21:50;348.10;;;215.90;;
22565;SDS011;11449;51.330;19.378;2023-12-22T03:26:58;302.20;;;209.60;;
22565;SDS011;11449;51.330;19.378;2023-12-22T03:32:06;541.30;;;490.90;;
22565;SDS011;11449;51.330;19.378;2023-12-22T03:37:09;674.00;;;615.10;;
22565;SDS011;11449;51.330;19.378;2023-12-22T03:42:17;321.00;;;229.70;;
22565;SDS011;11449;51.330;19.378;2023-12-22T03:47:25;342.50;;;221.70;;
22565;SDS011;11449;51.330;19.378;2023-12-22T03:52:29;656.50;;;596.90;;
22565;SDS011;11449;51.330;19.378;2023-12-22T03:57:38;587.30;;;534.00;;
22565;SDS011;11449;51.330;19.378;2023-12-22T04:02:43;632.60;;;577.00;;
22565;SDS011;11449;51.330;19.378;2023-12-22T04:07:47;649.60;;;595.20;;
22565;SDS011;11449;51.330;19.378;2023-12-22T04:12:54;688.20;;;629.60;;
22565;SDS011;11449;51.330;19.378;2023-12-22T04:17:57;684.70;;;626.40;;
22565;SDS011;11449;51.330;19.378;2023-12-22T04:23:02;673.30;;;615.10;;
22565;SDS011;11449;51.330;19.378;2023-12-22T04:28:05;671.80;;;615.70;;
22565;SDS011;11449;51.330;19.378;2023-12-22T04:33:09;646.50;;;591.10;;
22565;SDS011;11449;51.330;19.378;2023-12-22T04:38:19;623.90;;;567.20;;
22565;SDS011;11449;51.330;19.378;2023-12-22T04:43:23;648.10;;;589.20;;
22565;SDS011;11449;51.330;19.378;2023-12-22T04:48:31;323.60;;;233.80;;
22565;SDS011;11449;51.330;19.378;2023-12-22T04:53:40;275.30;;;190.60;;
22565;SDS011;11449;51.330;19.378;2023-12-22T04:58:45;596.30;;;543.00;;
22565;SDS011;11449;51.330;19.378;2023-12-22T05:03:53;599.10;;;544.50;;
22565;SDS011;11449;51.330;19.378;2023-12-22T05:09:02;669.90;;;612.60;;
22565;SDS011;11449;51.330;19.378;2023-12-22T05:14:07;650.30;;;595.60;;
22565;SDS011;11449;51.330;19.378;2023-12-22T05:19:11;669.60;;;611.70;;
22565;SDS011;11449;51.330;19.378;2023-12-22T05:24:15;563.50;;;508.90;;
22565;SDS011;11449;51.330;19.378;2023-12-22T05:29:23;576.80;;;521.20;;
22565;SDS011;11449;51.330;19.378;2023-12-22T05:34:31;588.80;;;532.00;;
22565;SDS011;11449;51.330;19.378;2023-12-22T05:39:36;634.80;;;578.10;;
22565;SDS011;11449;51.330;19.378;2023-12-22T05:44:41;590.50;;;537.50;;
22565;SDS011;11449;51.330;19.378;2023-12-22T05:49:45;654.90;;;598.20;;
22565;SDS011;11449;51.330;19.378;2023-12-22T05:54:49;606.80;;;551.50;;
22565;SDS011;11449;51.330;19.378;2023-12-22T05:59:57;650.50;;;592.80;;
22565;SDS011;11449;51.330;19.378;2023-12-22T06:05:07;635.60;;;580.10;;
22565;SDS011;11449;51.330;19.378;2023-12-22T06:10:11;595.20;;;541.50;;
22565;SDS011;11449;51.330;19.378;2023-12-22T06:15:19;574.70;;;519.90;;
22565;SDS011;11449;51.330;19.378;2023-12-22T06:20:23;499.50;;;448.00;;
22565;SDS011;11449;51.330;19.378;2023-12-22T06:25:27;503.70;;;450.80;;
22565;SDS011;11449;51.330;19.378;2023-12-22T06:30:35;526.50;;;475.70;;
22565;SDS011;11449;51.330;19.378;2023-12-22T06:35:44;535.40;;;486.20;;
22565;SDS011;11449;51.330;19.378;2023-12-22T06:40:48;552.50;;;501.80;;
22565;SDS011;11449;51.330;19.378;2023-12-22T06:45:56;518.70;;;469.40;;
22565;SDS011;11449;51.330;19.378;2023-12-22T06:51:16;562.10;;;505.60;;
22565;SDS011;11449;51.330;19.378;2023-12-22T06:56:24;369.50;;;291.60;;
22565;SDS011;11449;51.330;19.378;2023-12-22T07:01:30;342.60;;;229.40;;
22565;SDS011;11449;51.330;19.378;2023-12-22T07:06:42;245.90;;;160.70;;
22565;SDS011;11449;51.330;19.378;2023-12-22T07:11:50;168.40;;;88.70;;
22565;SDS011;11449;51.330;19.378;2023-12-22T07:16:58;267.10;;;178.30;;
22565;SDS011;11449;51.330;19.378;2023-12-22T07:22:07;283.30;;;172.60;;
22565;SDS011;11449;51.330;19.378;2023-12-22T07:27:15;274.20;;;163.00;;
22565;SDS011;11449;51.330;19.378;2023-12-22T07:32:23;327.20;;;212.00;;
22565;SDS011;11449;51.330;19.378;2023-12-22T07:37:28;711.10;;;649.70;;
22565;SDS011;11449;51.330;19.378;2023-12-22T07:42:33;757.60;;;693.20;;
22565;SDS011;11449;51.330;19.378;2023-12-22T07:47:41;847.00;;;783.10;;
22565;SDS011;11449;51.330;19.378;2023-12-22T07:52:51;896.60;;;830.70;;
22565;SDS011;11449;51.330;19.378;2023-12-22T07:57:59;909.50;;;842.60;;
22565;SDS011;11449;51.330;19.378;2023-12-22T08:03:07;926.40;;;859.80;;
22565;SDS011;11449;51.330;19.378;2023-12-22T08:08:17;850.00;;;786.60;;
22565;SDS011;11449;51.330;19.378;2023-12-22T08:13:21;799.40;;;735.50;;
22565;SDS011;11449;51.330;19.378;2023-12-22T08:18:28;529.10;;;474.40;;
22565;SDS011;11449;51.330;19.378;2023-12-22T08:23:33;236.90;;;118.50;;
22565;SDS011;11449;51.330;19.378;2023-12-22T08:28:37;277.30;;;142.90;;
22565;SDS011;11449;51.330;19.378;2023-12-22T08:33:45;192.30;;;95.70;;
22565;SDS011;11449;51.330;19.378;2023-12-22T08:38:53;205.40;;;102.10;;
22565;SDS011;11449;51.330;19.378;2023-12-22T08:44:04;253.80;;;147.80;;
22565;SDS011;11449;51.330;19.378;2023-12-22T08:49:12;255.60;;;152.40;;
22565;SDS011;11449;51.330;19.378;2023-12-22T08:54:20;291.30;;;178.20;;
22565;SDS011;11449;51.330;19.378;2023-12-22T08:59:28;336.40;;;220.20;;
22565;SDS011;11449;51.330;19.378;2023-12-22T09:04:35;293.80;;;171.50;;
22565;SDS011;11449;51.330;19.378;2023-12-22T09:09:43;267.10;;;163.80;;
22565;SDS011;11449;51.330;19.378;2023-12-22T09:14:51;275.10;;;177.90;;
22565;SDS011;11449;51.330;19.378;2023-12-22T09:19:58;269.90;;;177.50;;
22565;SDS011;11449;51.330;19.378;2023-12-22T09:25:06;301.10;;;211.00;;
22565;SDS011;11449;51.330;19.378;2023-12-22T09:30:17;494.80;;;447.50;;
22565;SDS011;11449;51.330;19.378;2023-12-22T09:35:25;722.90;;;662.60;;
22565;SDS011;11449;51.330;19.378;2023-12-22T09:40:34;680.90;;;622.40;;
22565;SDS011;11449;51.330;19.378;2023-12-22T09:45:43;318.90;;;206.10;;
22565;SDS011;11449;51.330;19.378;2023-12-22T09:50:51;270.00;;;173.30;;
22565;SDS011;11449;51.330;19.378;2023-12-22T09:55:59;292.60;;;198.10;;
22565;SDS011;11449;51.330;19.378;2023-12-22T10:01:08;337.50;;;214.20;;
22565;SDS011;11449;51.330;19.378;2023-12-22T10:06:16;329.00;;;230.40;;
22565;SDS011;11449;51.330;19.378;2023-12-22T10:11:24;435.50;;;349.90;;
22565;SDS011;11449;51.330;19.378;2023-12-22T10:16:32;424.80;;;319.30;;
22565;SDS011;11449;51.330;19.378;2023-12-22T10:21:40;312.80;;;236.40;;
22565;SDS011;11449;51.330;19.378;2023-12-22T10:26:45;232.40;;;135.90;;
22565;SDS011;11449;51.330;19.378;2023-12-22T10:31:53;685.50;;;627.50;;
22565;SDS011;11449;51.330;19.378;2023-12-22T10:37:03;277.80;;;187.60;;
22565;SDS011;11449;51.330;19.378;2023-12-22T10:42:11;256.10;;;168.80;;
22565;SDS011;11449;51.330;19.378;2023-12-22T10:47:19;273.60;;;170.80;;
22565;SDS011;11449;51.330;19.378;2023-12-22T10:52:28;302.00;;;167.10;;
22565;SDS011;11449;51.330;19.378;2023-12-22T10:57:36;335.50;;;201.20;;
22565;SDS011;11449;51.330;19.378;2023-12-22T11:02:43;871.50;;;806.60;;
22565;SDS011;11449;51.330;19.378;2023-12-22T11:07:55;595.20;;;541.10;;
22565;SDS011;11449;51.330;19.378;2023-12-22T11:13:06;195.50;;;127.10;;
22565;SDS011;11449;51.330;19.378;2023-12-22T11:18:14;214.70;;;164.20;;
22565;SDS011;11449;51.330;19.378;2023-12-22T11:23:22;412.80;;;367.80;;
22565;SDS011;11449;51.330;19.378;2023-12-22T11:28:26;963.80;;;892.40;;
22565;SDS011;11449;51.330;19.378;2023-12-22T11:33:34;926.10;;;854.60;;
22565;SDS011;11449;51.330;19.378;2023-12-22T11:38:42;562.70;;;512.00;;
22565;SDS011;11449;51.330;19.378;2023-12-22T11:43:47;602.70;;;548.10;;
22565;SDS011;11449;51.330;19.378;2023-12-22T11:48:54;507.90;;;459.00;;
22565;SDS011;11449;51.330;19.378;2023-12-22T11:54:17;524.20;;;474.30;;
22565;SDS011;11449;51.330;19.378;2023-12-22T11:59:33;729.20;;;666.00;;
22565;SDS011;11449;51.330;19.378;2023-12-22T12:04:40;208.40;;;107.50;;
22565;SDS011;11449;51.330;19.378;2023-12-22T12:09:48;264.20;;;177.30;;
22565;SDS011;11449;51.330;19.378;2023-12-22T12:14:57;264.80;;;153.10;;
22565;SDS011;11449;51.330;19.378;2023-12-22T12:20:06;270.30;;;160.60;;
22565;SDS011;11449;51.330;19.378;2023-12-22T12:25:14;801.00;;;739.10;;
22565;SDS011;11449;51.330;19.378;2023-12-22T12:30:22;765.30;;;702.00;;
22565;SDS011;11449;51.330;19.378;2023-12-22T12:35:31;765.70;;;702.10;;
22565;SDS011;11449;51.330;19.378;2023-12-22T12:40:39;799.40;;;736.90;;
22565;SDS011;11449;51.330;19.378;2023-12-22T12:45:48;712.90;;;653.70;;
22565;SDS011;11449;51.330;19.378;2023-12-22T12:50:51;738.30;;;677.80;;
22565;SDS011;11449;51.330;19.378;2023-12-22T12:55:59;794.10;;;731.30;;
22565;SDS011;11449;51.330;19.378;2023-12-22T13:01:09;784.60;;;718.20;;
22565;SDS011;11449;51.330;19.378;2023-12-22T13:06:23;798.30;;;733.50;;
22565;SDS011;11449;51.330;19.378;2023-12-22T13:11:34;802.90;;;739.00;;
22565;SDS011;11449;51.330;19.378;2023-12-22T13:16:43;785.90;;;723.90;;
22565;SDS011;11449;51.330;19.378;2023-12-22T13:21:55;771.40;;;709.50;;
22565;SDS011;11449;51.330;19.378;2023-12-22T13:27:01;778.60;;;717.50;;
22565;SDS011;11449;51.330;19.378;2023-12-22T13:37:14;338.60;;;255.20;;
22565;SDS011;11449;51.330;19.378;2023-12-22T13:42:22;308.20;;;215.80;;
22565;SDS011;11449;51.330;19.378;2023-12-22T13:47:26;917.20;;;847.30;;
22565;SDS011;11449;51.330;19.378;2023-12-22T13:52:33;891.70;;;823.50;;
22565;SDS011;11449;51.330;19.378;2023-12-22T13:57:44;917.40;;;851.50;;
22565;SDS011;11449;51.330;19.378;2023-12-22T14:02:52;925.00;;;858.30;;
22565;SDS011;11449;51.330;19.378;2023-12-22T14:08:01;921.10;;;853.50;;
22565;SDS011;11449;51.330;19.378;2023-12-22T14:13:10;925.30;;;855.00;;
22565;SDS011;11449;51.330;19.378;2023-12-22T14:18:18;937.60;;;868.60;;
22565;SDS011;11449;51.330;19.378;2023-12-22T14:23:26;940.40;;;869.60;;
22565;SDS011;11449;51.330;19.378;2023-12-22T14:28:33;940.20;;;869.50;;
22565;SDS011;11449;51.330;19.378;2023-12-22T14:33:41;966.40;;;896.40;;
22565;SDS011;11449;51.330;19.378;2023-12-22T14:38:49;962.80;;;892.30;;
22565;SDS011;11449;51.330;19.378;2023-12-22T14:43:57;976.40;;;903.90;;
22565;SDS011;11449;51.330;19.378;2023-12-22T14:49:04;971.90;;;901.30;;
22565;SDS011;11449;51.330;19.378;2023-12-22T14:54:12;957.50;;;886.40;;
22565;SDS011;11449;51.330;19.378;2023-12-22T14:59:20;970.30;;;897.40;;
22565;SDS011;11449;51.330;19.378;2023-12-22T15:04:27;964.40;;;889.80;;
22565;SDS011;11449;51.330;19.378;2023-12-22T15:09:38;951.30;;;880.30;;
22565;SDS011;11449;51.330;19.378;2023-12-22T15:14:46;948.60;;;879.40;;
22565;SDS011;11449;51.330;19.378;2023-12-22T15:19:54;949.50;;;879.60;;
22565;SDS011;11449;51.330;19.378;2023-12-22T15:25:02;965.90;;;895.00;;
22565;SDS011;11449;51.330;19.378;2023-12-22T15:30:11;963.00;;;892.00;;
22565;SDS011;11449;51.330;19.378;2023-12-22T15:35:18;974.30;;;902.40;;
22565;SDS011;11449;51.330;19.378;2023-12-22T15:40:26;967.20;;;893.00;;
22565;SDS011;11449;51.330;19.378;2023-12-22T15:45:34;960.90;;;887.10;;
22565;SDS011;11449;51.330;19.378;2023-12-22T15:50:37;964.50;;;892.70;;
22565;SDS011;11449;51.330;19.378;2023-12-22T15:55:45;957.30;;;887.00;;
22565;SDS011;11449;51.330;19.378;2023-12-22T16:00:53;955.60;;;885.80;;
22565;SDS011;11449;51.330;19.378;2023-12-22T16:06:03;965.20;;;893.50;;
22565;SDS011;11449;51.330;19.378;2023-12-22T16:11:12;980.10;;;905.00;;
22565;SDS011;11449;51.330;19.378;2023-12-22T16:16:17;959.70;;;889.30;;
22565;SDS011;11449;51.330;19.378;2023-12-22T16:21:25;957.50;;;884.00;;
22565;SDS011;11449;51.330;19.378;2023-12-22T16:26:32;963.70;;;889.80;;
22565;SDS011;11449;51.330;19.378;2023-12-22T16:31:41;957.00;;;887.00;;
22565;SDS011;11449;51.330;19.378;2023-12-22T16:36:48;964.00;;;893.40;;
22565;SDS011;11449;51.330;19.378;2023-12-22T16:41:56;511.90;;;457.50;;
22565;SDS011;11449;51.330;19.378;2023-12-22T16:47:04;374.70;;;263.30;;
22565;SDS011;11449;51.330;19.378;2023-12-22T16:52:12;370.60;;;290.40;;
22565;SDS011;11449;51.330;19.378;2023-12-22T16:57:20;468.80;;;351.00;;
22565;SDS011;11449;51.330;19.378;2023-12-22T17:02:30;668.20;;;604.90;;
22565;SDS011;11449;51.330;19.378;2023-12-22T17:07:38;624.80;;;569.10;;
22565;SDS011;11449;51.330;19.378;2023-12-22T17:12:47;634.90;;;578.60;;
22565;SDS011;11449;51.330;19.378;2023-12-22T17:17:55;685.70;;;627.10;;
22565;SDS011;11449;51.330;19.378;2023-12-22T17:23:02;673.70;;;613.70;;
22565;SDS011;11449;51.330;19.378;2023-12-22T17:28:10;723.30;;;663.10;;
22565;SDS011;11449;51.330;19.378;2023-12-22T17:33:18;690.40;;;630.80;;
22565;SDS011;11449;51.330;19.378;2023-12-22T17:38:26;704.50;;;643.70;;
22565;SDS011;11449;51.330;19.378;2023-12-22T17:43:35;746.40;;;683.80;;
22565;SDS011;11449;51.330;19.378;2023-12-22T17:48:40;331.80;;;193.00;;
22565;SDS011;11449;51.330;19.378;2023-12-22T17:53:45;820.30;;;753.30;;
22565;SDS011;11449;51.330;19.378;2023-12-22T17:58:49;836.80;;;769.50;;
22565;SDS011;11449;51.330;19.378;2023-12-22T18:03:56;836.80;;;772.50;;
22565;SDS011;11449;51.330;19.378;2023-12-22T18:09:00;321.50;;;197.10;;
22565;SDS011;11449;51.330;19.378;2023-12-22T18:14:09;379.00;;;269.20;;
22565;SDS011;11449;51.330;19.378;2023-12-22T18:19:17;381.40;;;273.90;;
22565;SDS011;11449;51.330;19.378;2023-12-22T18:24:21;842.30;;;778.70;;
22565;SDS011;11449;51.330;19.378;2023-12-22T18:29:31;780.20;;;717.90;;
22565;SDS011;11449;51.330;19.378;2023-12-22T18:34:40;775.50;;;714.20;;
22565;SDS011;11449;51.330;19.378;2023-12-22T18:39:47;755.90;;;691.60;;
22565;SDS011;11449;51.330;19.378;2023-12-22T18:44:56;745.50;;;680.00;;
22565;SDS011;11449;51.330;19.378;2023-12-22T18:50:07;352.40;;;249.80;;
22565;SDS011;11449;51.330;19.378;2023-12-22T18:55:17;760.70;;;697.90;;
22565;SDS011;11449;51.330;19.378;2023-12-22T19:00:26;730.90;;;669.80;;
22565;SDS011;11449;51.330;19.378;2023-12-22T19:05:34;736.20;;;674.80;;
22565;SDS011;11449;51.330;19.378;2023-12-22T19:10:38;739.40;;;678.90;;
22565;SDS011;11449;51.330;19.378;2023-12-22T19:15:48;735.60;;;671.00;;
22565;SDS011;11449;51.330;19.378;2023-12-22T19:20:59;413.90;;;307.80;;
22565;SDS011;11449;51.330;19.378;2023-12-22T19:26:03;835.40;;;770.90;;
22565;SDS011;11449;51.330;19.378;2023-12-22T19:31:12;817.80;;;750.70;;
22565;SDS011;11449;51.330;19.378;2023-12-22T19:36:20;398.00;;;282.20;;
22565;SDS011;11449;51.330;19.378;2023-12-22T19:41:25;381.30;;;256.40;;
22565;SDS011;11449;51.330;19.378;2023-12-22T19:46:36;445.30;;;347.50;;
22565;SDS011;11449;51.330;19.378;2023-12-22T19:51:42;762.60;;;701.60;;
22565;SDS011;11449;51.330;19.378;2023-12-22T19:56:48;716.20;;;653.50;;
22565;SDS011;11449;51.330;19.378;2023-12-22T20:01:52;793.60;;;728.90;;
22565;SDS011;11449;51.330;19.378;2023-12-22T20:07:00;806.70;;;742.20;;
22565;SDS011;11449;51.330;19.378;2023-12-22T20:12:04;885.40;;;819.50;;
22565;SDS011;11449;51.330;19.378;2023-12-22T20:17:07;877.40;;;810.10;;
22565;SDS011;11449;51.330;19.378;2023-12-22T20:22:11;893.30;;;824.50;;
22565;SDS011;11449;51.330;19.378;2023-12-22T20:27:16;921.50;;;852.30;;
22565;SDS011;11449;51.330;19.378;2023-12-22T20:32:25;919.10;;;849.30;;
22565;SDS011;11449;51.330;19.378;2023-12-22T20:37:29;924.10;;;855.00;;
22565;SDS011;11449;51.330;19.378;2023-12-22T20:42:37;917.90;;;848.70;;
22565;SDS011;11449;51.330;19.378;2023-12-22T20:47:40;946.30;;;876.50;;
22565;SDS011;11449;51.330;19.378;2023-12-22T20:52:48;935.60;;;866.30;;
22565;SDS011;11449;51.330;19.378;2023-12-22T20:58:02;944.90;;;875.40;;
22565;SDS011;11449;51.330;19.378;2023-12-22T21:03:06;961.70;;;889.30;;
22565;SDS011;11449;51.330;19.378;2023-12-22T21:08:16;948.10;;;877.10;;
22565;SDS011;11449;51.330;19.378;2023-12-22T21:13:20;955.50;;;881.90;;
22565;SDS011;11449;51.330;19.378;2023-12-22T21:18:27;945.00;;;875.50;;
22565;SDS011;11449;51.330;19.378;2023-12-22T21:23:32;951.70;;;881.60;;
22565;SDS011;11449;51.330;19.378;2023-12-22T21:28:40;947.40;;;875.90;;
22565;SDS011;11449;51.330;19.378;2023-12-22T21:33:48;950.20;;;879.70;;
22565;SDS011;11449;51.330;19.378;2023-12-22T21:38:52;967.80;;;897.00;;
22565;SDS011;11449;51.330;19.378;2023-12-22T21:44:01;960.10;;;889.00;;
22565;SDS011;11449;51.330;19.378;2023-12-22T21:49:06;980.10;;;907.80;;
22565;SDS011;11449;51.330;19.378;2023-12-22T21:54:12;980.00;;;903.60;;
22565;SDS011;11449;51.330;19.378;2023-12-22T21:59:17;977.60;;;903.30;;
22565;SDS011;11449;51.330;19.378;2023-12-22T22:04:22;979.40;;;906.10;;
22565;SDS011;11449;51.330;19.378;2023-12-22T22:09:26;982.70;;;909.30;;
22565;SDS011;11449;51.330;19.378;2023-12-22T22:14:31;983.80;;;910.40;;
22565;SDS011;11449;51.330;19.378;2023-12-22T22:19:40;992.30;;;918.40;;
22565;SDS011;11449;51.330;19.378;2023-12-22T22:24:44;989.80;;;916.40;;
22565;SDS011;11449;51.330;19.378;2023-12-22T22:29:52;993.50;;;920.00;;
22565;SDS011;11449;51.330;19.378;2023-12-22T22:35:02;995.20;;;919.10;;
22565;SDS011;11449;51.330;19.378;2023-12-22T22:40:06;995.90;;;919.80;;
22565;SDS011;11449;51.330;19.378;2023-12-22T22:45:11;994.70;;;918.80;;
22565;SDS011;11449;51.330;19.378;2023-12-22T22:50:18;999.30;;;923.00;;
22565;SDS011;11449;51.330;19.378;2023-12-22T22:55:21;993.50;;;919.30;;
22565;SDS011;11449;51.330;19.378;2023-12-22T23:00:27;982.70;;;910.10;;
22565;SDS011;11449;51.330;19.378;2023-12-22T23:05:31;965.60;;;894.80;;
22565;SDS011;11449;51.330;19.378;2023-12-22T23:10:43;971.40;;;900.40;;
22565;SDS011;11449;51.330;19.378;2023-12-22T23:15:53;972.30;;;901.30;;
22565;SDS011;11449;51.330;19.378;2023-12-22T23:21:01;962.90;;;889.20;;
22565;SDS011;11449;51.330;19.378;2023-12-22T23:26:05;947.30;;;876.70;;
22565;SDS011;11449;51.330;19.378;2023-12-22T23:31:13;961.80;;;887.10;;
22565;SDS011;11449;51.330;19.378;2023-12-22T23:36:15;897.60;;;828.20;;
22565;SDS011;11449;51.330;19.378;2023-12-22T23:41:25;734.10;;;671.20;;
22565;SDS011;11449;51.330;19.378;2023-12-22T23:46:33;700.90;;;640.80;;
22565;SDS011;11449;51.330;19.378;2023-12-22T23:51:42;636.30;;;580.50;;
22565;SDS011;11449;51.330;19.378;2023-12-22T23:56:47;561.00;;;509.20;;
